createdAt,value
2019-03-10T00:00:02.113Z,49.00
2019-03-10T00:02:32.598Z,49.00
2019-03-10T00:05:02.960Z,49.00
2019-03-10T00:07:33.634Z,49.10
2019-03-10T00:10:05.454Z,49.10
2019-03-10T00:12:36.028Z,49.10
2019-03-10T00:15:08.769Z,49.20
2019-03-10T00:17:39.228Z,49.10
2019-03-10T00:20:13.551Z,49.20
2019-03-10T00:22:44.407Z,49.10
2019-03-10T00:25:15.605Z,49.10
2019-03-10T00:27:46.102Z,49.10
2019-03-10T00:30:20.005Z,49.20
2019-03-10T00:32:51.391Z,49.20
2019-03-10T00:35:22.161Z,49.30
2019-03-10T00:37:52.676Z,49.30
2019-03-10T00:40:57.935Z,49.30
2019-03-10T00:43:50.558Z,49.40
2019-03-10T00:46:39.690Z,49.20
2019-03-10T00:49:45.595Z,49.30
2019-03-10T00:52:30.992Z,49.40
2019-03-10T00:55:01.540Z,49.30
2019-03-10T00:57:31.899Z,49.40
2019-03-10T01:00:02.302Z,49.40
2019-03-10T01:02:32.968Z,49.50
2019-03-10T01:05:03.409Z,49.50
2019-03-10T01:07:33.979Z,49.50
2019-03-10T01:10:04.405Z,49.50
2019-03-10T01:12:35.175Z,49.50
2019-03-10T01:15:07.526Z,49.40
2019-03-10T01:17:38.486Z,49.50
2019-03-10T01:20:13.777Z,49.50
2019-03-10T01:22:44.376Z,49.50
2019-03-10T01:25:15.524Z,49.50
2019-03-10T01:27:45.980Z,49.60
2019-03-10T01:30:18.784Z,49.70
2019-03-10T01:32:51.765Z,49.70
2019-03-10T01:35:27.761Z,49.70
2019-03-10T01:37:58.447Z,49.60
2019-03-10T01:40:30.289Z,49.60
2019-03-10T01:43:01.351Z,49.60
2019-03-10T01:45:32.338Z,49.50
2019-03-10T01:48:03.119Z,49.60
2019-03-10T01:50:33.949Z,49.60
2019-03-10T01:53:04.411Z,49.60
2019-03-10T01:55:35.160Z,49.70
2019-03-10T01:58:05.708Z,49.80
2019-03-10T02:00:36.517Z,49.80
2019-03-10T02:03:07.184Z,49.80
2019-03-10T02:05:37.571Z,49.70
2019-03-10T02:08:08.223Z,49.60
2019-03-10T02:10:38.794Z,49.70
2019-03-10T02:13:09.158Z,49.70
2019-03-10T02:15:40.010Z,49.80
2019-03-10T02:18:10.504Z,49.80
2019-03-10T02:20:40.952Z,49.80
2019-03-10T02:23:11.308Z,49.90
2019-03-10T02:25:42.093Z,50.00
2019-03-10T02:28:12.872Z,49.90
2019-03-10T02:30:43.401Z,50.50
2019-03-10T02:33:14.342Z,49.90
2019-03-10T02:35:45.218Z,49.90
2019-03-10T02:38:15.794Z,49.90
2019-03-10T02:40:46.219Z,50.00
2019-03-10T02:43:16.693Z,49.90
2019-03-10T02:45:48.481Z,49.90
2019-03-10T02:48:19.180Z,50.00
2019-03-10T02:50:49.625Z,50.00
2019-03-10T02:53:20.078Z,50.00
2019-03-10T02:55:51.055Z,50.00
2019-03-10T02:58:21.800Z,49.90
2019-03-10T03:00:52.248Z,49.90
2019-03-10T03:03:22.586Z,50.00
2019-03-10T03:05:53.097Z,50.00
2019-03-10T03:08:23.558Z,50.00
2019-03-10T03:10:54.019Z,50.00
2019-03-10T03:13:24.907Z,50.00
2019-03-10T03:15:55.407Z,50.00
2019-03-10T03:18:26.315Z,50.00
2019-03-10T03:20:56.753Z,50.00
2019-03-10T03:23:27.302Z,50.10
2019-03-10T03:25:58.247Z,50.10
2019-03-10T03:28:28.893Z,50.00
2019-03-10T03:30:59.438Z,50.10
2019-03-10T03:33:29.987Z,50.10
2019-03-10T03:36:18.068Z,50.10
2019-03-10T03:38:57.050Z,50.10
2019-03-10T03:41:28.310Z,50.10
2019-03-10T03:43:58.746Z,50.20
2019-03-10T03:46:29.229Z,50.70
2019-03-10T03:49:00.370Z,50.10
2019-03-10T03:51:30.812Z,50.20
2019-03-10T03:54:01.439Z,50.20
2019-03-10T03:56:32.149Z,50.20
2019-03-10T03:59:03.002Z,50.20
2019-03-10T04:01:40.964Z,50.20
2019-03-10T04:04:11.397Z,50.20
2019-03-10T04:06:41.768Z,50.20
2019-03-10T04:09:12.503Z,50.20
2019-03-10T04:11:42.977Z,50.20
2019-03-10T04:14:13.342Z,50.20
2019-03-10T04:16:43.733Z,50.20
2019-03-10T04:19:14.127Z,50.20
2019-03-10T04:21:44.568Z,50.20
2019-03-10T04:24:15.093Z,50.20
2019-03-10T04:26:45.576Z,50.30
2019-03-10T04:29:15.942Z,50.20
2019-03-10T04:31:46.581Z,50.20
2019-03-10T04:34:17.023Z,50.20
2019-03-10T04:36:47.444Z,50.20
2019-03-10T04:39:17.853Z,50.20
2019-03-10T04:41:48.561Z,50.30
2019-03-10T04:44:19.028Z,50.40
2019-03-10T04:46:49.400Z,50.30
2019-03-10T04:49:19.870Z,50.30
2019-03-10T04:51:51.044Z,50.40
2019-03-10T04:54:23.178Z,50.40
2019-03-10T04:56:55.373Z,50.30
2019-03-10T04:59:25.849Z,50.20
2019-03-10T05:01:56.292Z,50.20
2019-03-10T05:04:26.662Z,50.20
2019-03-10T05:06:57.538Z,50.30
2019-03-10T05:09:27.931Z,50.40
2019-03-10T05:11:58.685Z,50.40
2019-03-10T05:14:29.514Z,50.40
2019-03-10T05:17:00.307Z,50.40
2019-03-10T05:19:30.903Z,50.40
2019-03-10T05:22:01.266Z,50.30
2019-03-10T05:24:32.246Z,50.30
2019-03-10T05:27:02.850Z,50.20
2019-03-10T05:29:33.688Z,50.30
2019-03-10T05:32:04.466Z,50.30
2019-03-10T05:34:34.829Z,50.30
2019-03-10T05:37:05.692Z,50.40
2019-03-10T05:39:36.176Z,50.40
2019-03-10T05:42:06.633Z,50.40
2019-03-10T05:44:37.038Z,50.40
2019-03-10T05:47:07.539Z,50.40
2019-03-10T05:49:38.226Z,50.30
2019-03-10T05:52:08.928Z,50.30
2019-03-10T05:54:39.967Z,50.30
2019-03-10T05:57:10.369Z,50.30
2019-03-10T05:59:40.736Z,50.40
2019-03-10T06:02:11.629Z,50.40
2019-03-10T06:04:42.096Z,50.40
2019-03-10T06:07:12.969Z,50.40
2019-03-10T06:09:43.461Z,50.40
2019-03-10T06:12:13.928Z,50.40
2019-03-10T06:14:44.332Z,50.40
2019-03-10T06:17:14.780Z,50.40
2019-03-10T06:19:45.188Z,50.30
2019-03-10T06:22:15.951Z,50.40
2019-03-10T06:24:46.794Z,50.40
2019-03-10T06:27:17.349Z,50.40
2019-03-10T06:29:47.811Z,50.40
2019-03-10T06:32:18.219Z,50.40
2019-03-10T06:34:49.028Z,50.40
2019-03-10T06:37:19.502Z,50.40
2019-03-10T06:39:50.308Z,50.40
2019-03-10T06:42:20.684Z,50.30
2019-03-10T06:44:51.147Z,50.30
2019-03-10T06:47:21.989Z,50.40
2019-03-10T06:49:52.603Z,50.40
2019-03-10T06:52:23.269Z,50.40
2019-03-10T06:54:53.657Z,50.40
2019-03-10T06:57:24.586Z,50.40
2019-03-10T06:59:55.048Z,50.50
2019-03-10T07:02:25.497Z,50.40
2019-03-10T07:04:56.403Z,50.30
2019-03-10T07:07:27.218Z,50.90
2019-03-10T07:09:57.703Z,50.30
2019-03-10T07:12:28.672Z,50.40
2019-03-10T07:14:59.002Z,50.40
2019-03-10T07:17:29.396Z,50.40
2019-03-10T07:20:00.003Z,50.40
2019-03-10T07:22:30.730Z,50.50
2019-03-10T07:25:01.108Z,50.40
2019-03-10T07:27:32.923Z,50.30
2019-03-10T07:30:05.043Z,50.30
2019-03-10T07:32:42.424Z,50.30
2019-03-10T07:35:14.423Z,50.40
2019-03-10T07:37:58.109Z,50.40
2019-03-10T07:40:32.389Z,50.40
2019-03-10T07:43:07.277Z,50.40
2019-03-10T07:45:48.750Z,50.40
2019-03-10T07:48:29.736Z,50.40
2019-03-10T07:51:01.603Z,50.50
2019-03-10T07:53:36.261Z,50.30
2019-03-10T07:56:11.628Z,50.30
2019-03-10T07:58:55.181Z,50.40
2019-03-10T08:01:34.470Z,50.40
2019-03-10T08:04:18.412Z,50.30
2019-03-10T08:06:50.184Z,50.40
2019-03-10T08:09:21.986Z,50.40
2019-03-10T08:12:06.372Z,50.40
2019-03-10T08:14:44.056Z,50.30
2019-03-10T08:17:24.408Z,50.30
2019-03-10T08:20:04.340Z,50.30
2019-03-10T08:22:42.600Z,50.30
2019-03-10T08:25:30.754Z,50.30
2019-03-10T08:28:02.686Z,50.40
2019-03-10T08:30:50.997Z,50.40
2019-03-10T08:33:37.902Z,50.40
2019-03-10T08:36:13.742Z,50.30
2019-03-10T08:38:48.257Z,50.30
2019-03-10T08:41:35.758Z,50.30
2019-03-10T08:44:16.679Z,50.20
2019-03-10T08:46:51.651Z,50.20
2019-03-10T08:49:29.793Z,50.30
2019-03-10T08:52:07.153Z,50.30
2019-03-10T08:54:39.201Z,50.30
2019-03-10T08:57:28.740Z,50.40
2019-03-10T09:00:00.661Z,50.50
2019-03-10T09:02:34.936Z,50.40
2019-03-10T09:05:14.608Z,50.30
2019-03-10T09:07:55.301Z,50.30
2019-03-10T09:10:27.042Z,50.30
2019-03-10T09:13:05.338Z,50.30
2019-03-10T09:15:52.607Z,51.00
2019-03-10T09:18:27.481Z,50.40
2019-03-10T09:21:15.346Z,50.40
2019-03-10T09:23:59.502Z,50.40
2019-03-10T09:26:43.770Z,50.40
2019-03-10T09:29:15.525Z,50.30
2019-03-10T09:31:47.408Z,50.30
2019-03-10T09:34:25.433Z,50.30
2019-03-10T09:37:09.583Z,50.30
2019-03-10T09:39:41.481Z,50.40
2019-03-10T09:42:13.229Z,50.40
2019-03-10T09:45:00.726Z,50.40
2019-03-10T09:47:35.390Z,50.40
2019-03-10T09:50:15.265Z,50.40
2019-03-10T09:53:05.160Z,50.30
2019-03-10T09:55:42.914Z,50.30
2019-03-10T09:58:21.153Z,50.30
2019-03-10T10:00:55.956Z,50.40
2019-03-10T10:03:27.915Z,50.30
2019-03-10T10:06:03.289Z,50.40
2019-03-10T10:08:40.766Z,50.50
2019-03-10T10:11:18.441Z,50.40
2019-03-10T10:13:52.883Z,50.40
2019-03-10T10:16:36.752Z,50.40
2019-03-10T10:19:08.594Z,50.40
2019-03-10T10:21:51.998Z,50.40
2019-03-10T10:24:30.190Z,50.30
2019-03-10T10:27:05.154Z,50.40
2019-03-10T10:29:39.645Z,50.40
2019-03-10T10:32:11.913Z,50.40
2019-03-10T10:34:50.035Z,50.40
2019-03-10T10:37:38.413Z,50.40
2019-03-10T10:40:17.449Z,50.40
2019-03-10T10:42:55.044Z,50.40
2019-03-10T10:45:38.794Z,50.30
2019-03-10T10:48:16.619Z,50.40
2019-03-10T10:50:57.395Z,50.30
2019-03-10T10:53:29.218Z,50.40
2019-03-10T10:56:01.227Z,50.40
2019-03-10T10:58:41.923Z,50.40
2019-03-10T11:01:13.729Z,50.40
2019-03-10T11:03:46.068Z,50.40
2019-03-10T11:06:23.673Z,50.30
2019-03-10T11:08:55.516Z,50.30
2019-03-10T11:11:32.801Z,50.30
2019-03-10T11:14:04.663Z,50.30
2019-03-10T11:16:45.309Z,50.30
2019-03-10T11:19:16.446Z,50.40
2019-03-10T11:21:57.602Z,50.40
2019-03-10T11:24:29.789Z,50.40
2019-03-10T11:27:01.613Z,50.40
2019-03-10T11:29:39.440Z,50.40
2019-03-10T11:32:11.510Z,50.40
2019-03-10T11:34:59.515Z,50.40
2019-03-10T11:37:34.281Z,50.40
2019-03-10T11:40:07.118Z,50.40
2019-03-10T11:42:54.782Z,50.40
2019-03-10T11:45:44.572Z,50.40
2019-03-10T11:48:32.013Z,50.40
2019-03-10T11:51:06.415Z,50.40
2019-03-10T11:53:47.185Z,50.40
2019-03-10T11:56:18.956Z,50.40
2019-03-10T11:59:07.891Z,50.40
2019-03-10T12:01:45.548Z,50.40
2019-03-10T12:04:17.486Z,50.40
2019-03-10T12:06:55.376Z,50.40
2019-03-10T12:09:26.085Z,50.50
2019-03-10T12:11:56.801Z,50.50
2019-03-10T12:14:27.788Z,50.50
2019-03-10T12:16:58.593Z,51.20
2019-03-10T12:19:29.048Z,50.40
2019-03-10T12:21:59.519Z,50.40
2019-03-10T12:24:29.850Z,50.40
2019-03-10T12:27:00.584Z,50.30
2019-03-10T12:29:31.117Z,50.40
2019-03-10T12:32:01.561Z,50.40
2019-03-10T12:34:31.932Z,50.40
2019-03-10T12:37:02.516Z,50.40
2019-03-10T12:39:32.963Z,50.50
2019-03-10T12:42:03.396Z,50.50
2019-03-10T12:44:33.801Z,50.40
2019-03-10T12:47:04.657Z,50.40
2019-03-10T12:49:35.160Z,50.40
2019-03-10T12:52:05.638Z,50.40
2019-03-10T12:54:35.974Z,50.40
2019-03-10T12:57:06.355Z,50.50
2019-03-10T12:59:36.858Z,50.50
2019-03-10T13:02:07.185Z,50.40
2019-03-10T13:04:37.654Z,50.40
2019-03-10T13:07:08.288Z,50.50
2019-03-10T13:09:38.820Z,50.50
2019-03-10T13:12:09.206Z,50.40
2019-03-10T13:14:39.722Z,50.40
2019-03-10T13:17:10.160Z,50.40
2019-03-10T13:19:40.946Z,50.40
2019-03-10T13:22:11.685Z,50.50
2019-03-10T13:24:42.134Z,50.60
2019-03-10T13:27:12.524Z,50.50
2019-03-10T13:29:42.951Z,50.50
2019-03-10T13:32:13.356Z,50.50
2019-03-10T13:34:43.697Z,50.50
2019-03-10T13:37:14.073Z,50.40
2019-03-10T13:39:45.570Z,50.50
2019-03-10T13:42:16.081Z,50.50
2019-03-10T13:44:46.707Z,50.50
2019-03-10T13:47:17.066Z,50.60
2019-03-10T13:49:47.501Z,50.50
2019-03-10T13:52:18.279Z,51.20
2019-03-10T13:54:48.704Z,50.60
2019-03-10T13:57:19.230Z,50.50
2019-03-10T13:59:50.122Z,50.60
2019-03-10T14:02:20.687Z,50.60
2019-03-10T14:04:51.488Z,50.50
2019-03-10T14:07:21.911Z,50.50
2019-03-10T14:09:52.588Z,50.60
2019-03-10T14:12:23.404Z,50.50
2019-03-10T14:14:53.893Z,50.50
2019-03-10T14:17:24.631Z,50.50
2019-03-10T14:19:55.240Z,50.50
2019-03-10T14:22:25.661Z,50.50
2019-03-10T14:24:56.118Z,50.60
2019-03-10T14:27:26.495Z,50.50
2019-03-10T14:29:57.340Z,50.50
2019-03-10T14:32:27.780Z,50.50
2019-03-10T14:34:58.222Z,50.60
2019-03-10T14:37:28.557Z,50.60
2019-03-10T14:39:59.034Z,50.60
2019-03-10T14:42:29.828Z,50.60
2019-03-10T14:45:00.350Z,50.60
2019-03-10T14:47:30.791Z,50.70
2019-03-10T14:50:01.130Z,50.60
2019-03-10T14:52:31.589Z,50.50
2019-03-10T14:55:02.539Z,50.60
2019-03-10T14:57:33.058Z,50.60
2019-03-10T15:00:03.583Z,50.60
2019-03-10T15:02:34.255Z,50.60
2019-03-10T15:05:05.047Z,50.60
2019-03-10T15:07:35.393Z,50.60
2019-03-10T15:10:08.039Z,50.60
2019-03-10T15:12:38.721Z,50.60
2019-03-10T15:15:21.829Z,50.60
2019-03-10T15:17:46.371Z,50.60
2019-03-10T15:20:17.887Z,50.60
2019-03-10T15:22:48.321Z,50.60
2019-03-10T15:25:19.807Z,50.60
2019-03-10T15:27:50.731Z,50.70
2019-03-10T15:30:29.192Z,50.70
2019-03-10T15:32:59.981Z,50.70
2019-03-10T15:35:30.330Z,50.70
2019-03-10T15:38:00.729Z,50.60
2019-03-10T15:40:31.160Z,50.60
2019-03-10T15:43:01.708Z,50.70
2019-03-10T15:45:32.160Z,50.60
2019-03-10T15:48:02.836Z,50.70
2019-03-10T15:50:35.246Z,50.60
2019-03-10T15:53:05.602Z,50.70
2019-03-10T15:55:36.040Z,50.70
2019-03-10T15:58:09.364Z,50.80
2019-03-10T16:00:39.921Z,50.70
2019-03-10T16:03:10.573Z,50.70
2019-03-10T16:05:41.454Z,50.70
2019-03-10T16:08:12.229Z,50.60
2019-03-10T16:10:44.855Z,50.70
2019-03-10T16:13:14.855Z,50.60
2019-03-10T16:15:45.531Z,50.70
2019-03-10T16:18:15.870Z,50.80
2019-03-10T16:20:46.537Z,50.70
2019-03-10T16:23:16.859Z,50.70
2019-03-10T16:25:47.307Z,50.80
2019-03-10T16:28:18.239Z,50.70
2019-03-10T16:30:48.863Z,50.60
2019-03-10T16:33:19.233Z,50.70
2019-03-10T16:35:50.233Z,50.70
2019-03-10T16:38:20.648Z,50.60
2019-03-10T16:40:50.994Z,50.70
2019-03-10T16:43:21.378Z,50.70
2019-03-10T16:45:51.806Z,50.70
2019-03-10T16:48:22.352Z,50.80
2019-03-10T16:50:52.861Z,50.80
2019-03-10T16:53:23.687Z,50.70
2019-03-10T16:56:02.461Z,50.70
2019-03-10T16:58:26.055Z,50.60
2019-03-10T17:00:56.579Z,50.60
2019-03-10T17:03:26.908Z,50.70
2019-03-10T17:05:57.486Z,50.70
2019-03-10T17:08:27.896Z,50.70
2019-03-10T17:10:58.225Z,50.60
2019-03-10T17:13:28.718Z,50.70
2019-03-10T17:15:59.354Z,50.80
2019-03-10T17:18:29.768Z,50.70
2019-03-10T17:21:00.589Z,50.70
2019-03-10T17:23:31.014Z,50.70
2019-03-10T17:26:01.725Z,50.60
2019-03-10T17:28:32.281Z,50.60
2019-03-10T17:31:02.805Z,50.70
2019-03-10T17:33:33.218Z,50.80
2019-03-10T17:36:03.712Z,50.70
2019-03-10T17:38:34.060Z,50.70
2019-03-10T17:41:04.490Z,50.70
2019-03-10T17:43:34.847Z,50.70
2019-03-10T17:46:05.287Z,50.70
2019-03-10T17:48:35.689Z,50.80
2019-03-10T17:51:06.297Z,50.60
2019-03-10T17:53:36.709Z,50.70
2019-03-10T17:56:07.469Z,50.80
2019-03-10T17:58:38.004Z,50.70
2019-03-10T18:01:08.498Z,51.40
2019-03-10T18:03:39.629Z,50.70
2019-03-10T18:06:10.295Z,50.80
2019-03-10T18:08:40.724Z,50.80
2019-03-10T18:11:11.137Z,50.80
2019-03-10T18:13:41.473Z,50.70
2019-03-10T18:16:12.085Z,50.80
2019-03-10T18:18:42.495Z,50.90
2019-03-10T18:21:12.880Z,50.90
2019-03-10T18:23:43.406Z,50.80
2019-03-10T18:26:14.192Z,50.80
2019-03-10T18:28:44.578Z,50.80
2019-03-10T18:31:15.329Z,50.80
2019-03-10T18:33:46.035Z,51.50
2019-03-10T18:36:16.369Z,50.90
2019-03-10T18:38:47.024Z,50.90
2019-03-10T18:41:17.445Z,50.80
2019-03-10T18:43:48.209Z,50.80
2019-03-10T18:46:19.015Z,50.90
2019-03-10T18:48:49.583Z,51.00
2019-03-10T18:51:19.946Z,50.90
2019-03-10T18:53:50.285Z,50.90
2019-03-10T18:56:20.709Z,50.90
2019-03-10T18:58:51.152Z,50.90
2019-03-10T19:01:21.562Z,50.90
2019-03-10T19:03:52.271Z,50.90
2019-03-10T19:06:22.920Z,51.00
2019-03-10T19:08:53.597Z,50.90
2019-03-10T19:11:24.028Z,50.90
2019-03-10T19:13:55.699Z,50.80
2019-03-10T19:16:26.192Z,50.90
2019-03-10T19:18:56.716Z,50.90
2019-03-10T19:21:27.272Z,50.80
2019-03-10T19:23:58.127Z,51.00
2019-03-10T19:26:28.755Z,50.80
2019-03-10T19:28:59.524Z,50.80
2019-03-10T19:31:29.958Z,50.90
2019-03-10T19:34:00.437Z,50.90
2019-03-10T19:36:30.819Z,50.90
2019-03-10T19:39:01.570Z,50.90
2019-03-10T19:41:32.408Z,50.80
2019-03-10T19:44:02.841Z,50.90
2019-03-10T19:46:33.331Z,50.90
2019-03-10T19:49:03.839Z,50.90
2019-03-10T19:51:34.810Z,50.90
2019-03-10T19:54:05.199Z,51.00
2019-03-10T19:56:35.637Z,50.80
2019-03-10T19:59:06.375Z,51.00
2019-03-10T20:01:36.760Z,50.90
2019-03-10T20:04:07.226Z,50.90
2019-03-10T20:06:37.997Z,51.00
2019-03-10T20:09:08.822Z,50.90
2019-03-10T20:11:39.289Z,51.00
2019-03-10T20:14:09.782Z,51.00
2019-03-10T20:16:40.147Z,51.00
2019-03-10T20:19:10.920Z,51.00
2019-03-10T20:21:41.569Z,50.90
2019-03-10T20:24:12.311Z,51.10
2019-03-10T20:26:44.036Z,51.00
2019-03-10T20:29:14.719Z,51.00
2019-03-10T20:31:45.201Z,51.00
2019-03-10T20:34:15.840Z,51.00
2019-03-10T20:36:46.311Z,51.10
2019-03-10T20:39:17.183Z,51.10
2019-03-10T20:41:47.804Z,51.20
2019-03-10T20:44:18.372Z,51.00
2019-03-10T20:46:49.238Z,51.20
2019-03-10T20:49:19.672Z,51.10
2019-03-10T20:51:50.074Z,51.10
2019-03-10T20:54:20.434Z,51.70
2019-03-10T20:56:50.925Z,51.10
2019-03-10T20:59:21.404Z,51.20
2019-03-10T21:01:52.001Z,51.30
2019-03-10T21:04:22.923Z,51.30
2019-03-10T21:06:54.701Z,51.40
2019-03-10T21:09:27.354Z,51.40
2019-03-10T21:11:56.937Z,51.20
2019-03-10T21:14:27.676Z,51.40
2019-03-10T21:16:58.045Z,51.30
2019-03-10T21:19:28.814Z,51.70
2019-03-10T21:21:59.508Z,51.30
2019-03-10T21:24:29.981Z,51.30
2019-03-10T21:27:00.711Z,51.40
2019-03-10T21:29:31.142Z,51.00
2019-03-10T21:32:01.725Z,51.60
2019-03-10T21:34:32.105Z,51.40
2019-03-10T21:37:02.945Z,51.40
2019-03-10T21:39:34.976Z,51.40
2019-03-10T21:42:05.570Z,51.40
2019-03-10T21:44:36.307Z,51.40
2019-03-10T21:47:06.860Z,51.40
2019-03-10T21:49:37.255Z,51.40
2019-03-10T21:52:07.921Z,51.40
2019-03-10T21:54:38.465Z,51.40
2019-03-10T21:57:09.177Z,51.40
2019-03-10T21:59:39.634Z,51.40
2019-03-10T22:02:10.100Z,51.40
2019-03-10T22:04:40.788Z,51.40
2019-03-10T22:07:11.308Z,51.40
2019-03-10T22:09:43.512Z,51.40
2019-03-10T22:12:14.169Z,51.40
2019-03-10T22:14:44.557Z,51.50
2019-03-10T22:17:15.021Z,51.40
2019-03-10T22:19:45.436Z,51.60
2019-03-10T22:22:16.208Z,51.70
2019-03-10T22:24:46.865Z,51.60
2019-03-10T22:27:17.657Z,51.60
2019-03-10T22:29:48.109Z,51.60
2019-03-10T22:32:18.955Z,51.50
2019-03-10T22:34:49.347Z,51.60
2019-03-10T22:37:20.032Z,52.30
2019-03-10T22:39:50.989Z,51.60
2019-03-10T22:42:21.422Z,51.90
2019-03-10T22:44:51.798Z,51.90
2019-03-10T22:47:22.263Z,52.00
2019-03-10T22:49:54.881Z,51.90
2019-03-10T22:52:25.302Z,51.90
2019-03-10T22:54:55.715Z,52.00
2019-03-10T22:57:26.208Z,52.10
2019-03-10T22:59:56.853Z,52.20
2019-03-10T23:02:27.229Z,52.30
2019-03-10T23:04:57.728Z,52.50
2019-03-10T23:07:28.429Z,52.40
2019-03-10T23:09:58.800Z,52.40
2019-03-10T23:12:29.298Z,52.40
2019-03-10T23:14:59.766Z,52.30
2019-03-10T23:17:30.121Z,52.40
2019-03-10T23:20:00.536Z,52.50
2019-03-10T23:22:31.400Z,52.50
2019-03-10T23:25:02.204Z,52.60
2019-03-10T23:27:32.803Z,52.70
2019-03-10T23:30:03.212Z,52.70
2019-03-10T23:32:33.648Z,52.70
2019-03-10T23:35:04.274Z,52.80
2019-03-10T23:37:34.669Z,52.70
2019-03-10T23:40:08.940Z,52.70
2019-03-10T23:42:39.442Z,52.60
2019-03-10T23:45:12.721Z,52.80
2019-03-10T23:47:43.598Z,53.40
2019-03-10T23:50:18.780Z,52.60
2019-03-10T23:52:49.116Z,52.70
2019-03-10T23:55:19.484Z,52.80
2019-03-10T23:57:50.403Z,52.80
